Time;durP1;ratioP1;P1;durP2;ratioP2;P2;SDS_P1;SDS_P2;PMS_P1;PMS_P2;Temp;Humidity;BMP_temperature;BMP_pressure;BME280_temperature;BME280_humidity;BME280_pressure;Samples;Min_cycle;Max_cycle;Signal;HPM_P1;HPM_P2
2024/04/02 00:01:46;;;;;;;1.35;1.20;;;;;;;6.13;72.72;98726.13;5087506;28;20412;-69
2024/04/02 00:04:13;;;;;;;1.40;1.35;;;;;;;6.16;72.76;98726.94;5087198;28;20020;-70
2024/04/02 00:06:38;;;;;;;0.80;0.80;;;;;;;6.09;73.02;98707.28;5085873;28;20016;-70
2024/04/02 00:09:04;;;;;;;4.32;1.08;;;;;;;6.09;72.68;98717.59;5086730;28;20488;-70
2024/04/02 00:11:30;;;;;;;1.35;1.13;;;;;;;6.09;72.50;98709.03;5087185;28;20032;-68
2024/04/02 00:13:55;;;;;;;2.15;1.95;;;;;;;5.95;72.86;98713.50;5087143;28;20024;-69
2024/04/02 00:16:21;;;;;;;2.95;1.20;;;;;;;5.92;73.14;98708.41;5087177;28;20023;-69
2024/04/02 00:18:46;;;;;;;2.75;1.23;;;;;;;5.86;72.87;98708.50;5085418;28;20027;-68
2024/04/02 00:21:13;;;;;;;0.65;0.60;;;;;;;5.81;73.14;98693.09;5087194;28;20430;-69
2024/04/02 00:23:40;;;;;;;0.73;0.73;;;;;;;5.76;73.29;98679.47;5085513;28;20016;-70
2024/04/02 00:26:05;;;;;;;0.60;0.60;;;;;;;5.61;73.46;98685.72;5087178;28;20017;-69
2024/04/02 00:28:31;;;;;;;1.02;0.90;;;;;;;5.67;73.04;98693.34;5085324;28;20024;-69
2024/04/02 00:31:00;;;;;;;0.70;0.70;;;;;;;5.61;73.08;98667.69;5085506;28;20013;-71
2024/04/02 00:33:27;;;;;;;1.17;1.08;;;;;;;5.64;73.22;98690.81;5085213;28;20459;-69
2024/04/02 00:36:03;;;;;;;1.10;0.93;;;;;;;5.56;73.34;98697.78;5086795;28;20039;-70
2024/04/02 00:38:29;;;;;;;0.88;0.88;;;;;;;5.60;72.99;98701.19;5085105;28;20078;-71
2024/04/02 00:40:54;;;;;;;0.77;0.77;;;;;;;5.44;73.19;98699.72;5086772;28;20017;-69
2024/04/02 00:43:20;;;;;;;1.05;0.85;;;;;;;5.41;73.56;98694.59;5086667;28;20098;-70
2024/04/02 00:45:45;;;;;;;0.60;0.60;;;;;;;5.40;73.49;98708.31;5085329;28;20472;-69
2024/04/02 00:48:11;;;;;;;0.98;0.98;;;;;;;5.44;73.23;98707.44;5086215;28;20479;-69
2024/04/02 00:50:37;;;;;;;0.55;0.55;;;;;;;5.42;73.26;98714.31;5085139;28;20082;-70
2024/04/02 00:53:02;;;;;;;2.38;1.98;;;;;;;5.41;73.78;98715.19;5086252;28;20028;-69
2024/04/02 00:55:28;;;;;;;0.47;0.47;;;;;;;5.30;73.68;98717.06;5086543;28;20273;-70
2024/04/02 00:57:54;;;;;;;0.63;0.63;;;;;;;5.35;73.64;98719.56;5086186;28;20092;-69
2024/04/02 01:00:20;;;;;;;0.45;0.45;;;;;;;5.34;73.43;98729.00;5085052;28;20058;-71
2024/04/02 01:02:45;;;;;;;0.50;0.50;;;;;;;5.39;73.26;98719.50;5084492;28;20021;-71
2024/04/02 01:05:11;;;;;;;0.80;0.80;;;;;;;5.25;73.57;98735.16;5084722;28;20024;-68
2024/04/02 01:07:39;;;;;;;0.50;0.50;;;;;;;5.20;73.89;98724.06;5085096;28;20037;-70
2024/04/02 01:10:05;;;;;;;1.48;0.98;;;;;;;5.14;74.01;98714.72;5085929;28;20017;-69
2024/04/02 01:12:30;;;;;;;0.75;0.75;;;;;;;5.12;74.18;98729.31;5084466;28;20033;-69
2024/04/02 01:14:56;;;;;;;1.10;0.93;;;;;;;5.16;73.83;98736.09;5085739;28;20024;-68
2024/04/02 01:17:21;;;;;;;0.68;0.68;;;;;;;5.15;73.56;98742.13;5085423;28;20032;-70
2024/04/02 01:19:46;;;;;;;0.63;0.63;;;;;;;5.28;72.71;98723.94;5084532;28;20040;-70
2024/04/02 01:22:12;;;;;;;0.65;0.65;;;;;;;5.27;72.38;98751.41;5085784;28;20025;-70
2024/04/02 01:24:37;;;;;;;0.60;0.60;;;;;;;5.10;73.10;98733.63;5086010;28;20017;-69
2024/04/02 01:27:03;;;;;;;0.93;0.93;;;;;;;5.04;73.58;98733.69;5085853;28;20050;-70
2024/04/02 01:29:28;;;;;;;0.50;0.50;;;;;;;5.05;73.34;98735.38;5085542;28;20020;-70
2024/04/02 01:31:54;;;;;;;2.58;0.88;;;;;;;5.17;72.76;98750.69;5085541;28;20070;-69
2024/04/02 01:34:19;;;;;;;0.60;0.60;;;;;;;5.20;72.26;98739.50;5085392;28;20028;-69
2024/04/02 01:36:44;;;;;;;0.75;0.73;;;;;;;5.09;72.77;98729.34;5085505;28;20028;-70
2024/04/02 01:39:10;;;;;;;0.73;0.70;;;;;;;5.11;72.71;98734.47;5085529;28;20024;-69
2024/04/02 01:41:35;;;;;;;1.85;0.75;;;;;;;5.01;72.86;98778.31;5085604;28;20070;-70
2024/04/02 01:44:02;;;;;;;0.52;0.52;;;;;;;5.00;72.54;98770.63;5085545;28;20032;-70
2024/04/02 01:46:28;;;;;;;1.02;0.90;;;;;;;4.86;73.30;98768.22;5084190;28;20031;-71
2024/04/02 01:48:53;;;;;;;0.55;0.55;;;;;;;4.91;72.97;98746.72;5085056;28;20024;-70
2024/04/02 01:51:19;;;;;;;0.77;0.77;;;;;;;4.94;72.90;98772.41;5085453;28;20378;-69
2024/04/02 01:53:44;;;;;;;0.63;0.63;;;;;;;4.99;72.31;98754.34;5085176;28;20035;-70
2024/04/02 01:56:10;;;;;;;0.75;0.70;;;;;;;4.80;72.78;98759.69;5085373;28;20028;-70
2024/04/02 01:58:35;;;;;;;0.60;0.60;;;;;;;4.81;72.94;98751.09;5085080;28;20025;-69
2024/04/02 02:01:00;;;;;;;0.80;0.80;;;;;;;4.65;73.47;98770.16;5083181;28;20039;-70
2024/04/02 02:03:26;;;;;;;0.50;0.50;;;;;;;4.68;73.53;98768.38;5084854;28;20523;-71
2024/04/02 02:05:51;;;;;;;0.60;0.60;;;;;;;4.55;73.81;98771.97;5085016;28;20029;-72
2024/04/02 02:08:16;;;;;;;1.15;0.63;;;;;;;4.35;74.61;98757.59;5084996;28;20052;-74
2024/04/02 02:10:42;;;;;;;0.73;0.60;;;;;;;4.27;74.89;98762.81;5084710;28;20116;-73
2024/04/02 02:13:08;;;;;;;2.35;0.85;;;;;;;4.45;74.65;98753.22;5084942;28;20051;-75
2024/04/02 02:15:37;;;;;;;0.50;0.50;;;;;;;4.32;75.02;98757.63;5085061;28;20395;-73
2024/04/02 02:18:03;;;;;;;0.70;0.70;;;;;;;4.09;75.79;98751.81;5084573;28;20120;-73
2024/04/02 02:20:28;;;;;;;0.82;0.80;;;;;;;3.86;76.41;98744.31;5085311;28;20016;-70
2024/04/02 02:22:53;;;;;;;0.70;0.70;;;;;;;3.86;76.78;98752.03;5085411;28;20027;-70
2024/04/02 02:25:19;;;;;;;0.75;0.75;;;;;;;3.82;77.21;98781.13;5085224;28;20044;-69
2024/04/02 02:27:44;;;;;;;0.50;0.50;;;;;;;3.55;77.58;98737.69;5084827;28;20293;-69
2024/04/02 02:30:10;;;;;;;1.02;0.90;;;;;;;3.59;78.30;98735.97;5084910;28;20483;-70
2024/04/02 02:32:35;;;;;;;0.77;0.77;;;;;;;3.79;78.44;98747.78;5084770;28;20048;-72
2024/04/02 02:35:04;;;;;;;1.40;0.70;;;;;;;3.50;79.14;98739.41;5085145;28;20079;-71
2024/04/02 02:37:30;;;;;;;0.50;0.50;;;;;;;3.56;79.38;98739.38;5084642;28;20111;-70
2024/04/02 02:39:55;;;;;;;0.75;0.70;;;;;;;3.41;80.15;98766.00;5084882;28;20028;-74
2024/04/02 02:42:23;;;;;;;0.40;0.40;;;;;;;3.30;80.73;98736.97;5083350;28;20054;-74
2024/04/02 02:44:49;;;;;;;0.50;0.50;;;;;;;3.18;81.37;98743.88;5084905;28;20027;-72
2024/04/02 02:47:14;;;;;;;0.40;0.40;;;;;;;3.15;82.08;98778.94;5084532;28;20016;-71
2024/04/02 02:49:40;;;;;;;0.50;0.50;;;;;;;3.28;81.67;98726.72;5084320;28;20065;-73
2024/04/02 02:52:05;;;;;;;0.88;0.88;;;;;;;3.14;82.45;98728.53;5084843;28;20087;-72
2024/04/02 02:54:30;;;;;;;3.05;0.93;;;;;;;3.01;83.38;98743.97;5084729;28;20074;-73
2024/04/02 02:56:56;;;;;;;0.50;0.50;;;;;;;2.98;83.96;98738.84;5084790;28;20085;-74
2024/04/02 02:59:21;;;;;;;0.50;0.50;;;;;;;2.92;84.80;98750.00;5084495;28;20017;-72
2024/04/02 03:01:46;;;;;;;0.55;0.55;;;;;;;2.94;84.80;98730.31;5084838;28;20105;-72
2024/04/02 03:04:12;;;;;;;1.52;1.48;;;;;;;2.94;85.14;98739.75;5084434;28;20029;-70
2024/04/02 03:06:37;;;;;;;0.50;0.50;;;;;;;2.85;85.46;98733.78;5083234;28;20021;-70
2024/04/02 03:09:02;;;;;;;0.50;0.50;;;;;;;2.83;85.84;98744.88;5084214;28;20048;-73
2024/04/02 03:11:28;;;;;;;1.30;0.70;;;;;;;2.74;86.26;98738.09;5084823;28;20033;-72
2024/04/02 03:13:53;;;;;;;0.60;0.60;;;;;;;2.83;86.52;98757.69;5084280;28;20024;-73
2024/04/02 03:16:21;;;;;;;0.68;0.68;;;;;;;2.66;87.16;98768.88;5084609;28;20036;-71
2024/04/02 03:18:47;;;;;;;1.05;0.93;;;;;;;2.69;87.64;98756.06;5084175;28;20024;-74
2024/04/02 03:21:14;;;;;;;0.40;0.40;;;;;;;2.50;88.19;98750.13;5084290;28;20028;-71
2024/04/02 03:23:39;;;;;;;0.50;0.50;;;;;;;2.60;88.27;98745.81;5084314;28;20032;-71
2024/04/02 03:26:05;;;;;;;0.80;0.80;;;;;;;2.53;88.51;98767.19;5084660;28;20028;-71
2024/04/02 03:28:30;;;;;;;0.60;0.60;;;;;;;2.45;89.02;98765.50;5082808;28;20016;-73
2024/04/02 03:31:00;;;;;;;0.70;0.70;;;;;;;2.52;89.25;98768.03;5087625;28;20017;-72
2024/04/02 03:33:26;;;;;;;0.47;0.47;;;;;;;2.41;89.73;98788.56;5086232;28;20024;-74
2024/04/02 03:35:53;;;;;;;0.50;0.50;;;;;;;2.31;90.61;98774.91;5087867;28;20100;-72
2024/04/02 03:38:18;;;;;;;0.50;0.50;;;;;;;2.27;90.48;98776.59;5087339;28;20024;-72
2024/04/02 03:40:44;;;;;;;0.50;0.50;;;;;;;2.10;90.79;98782.59;5088458;28;20088;-73
2024/04/02 03:43:10;;;;;;;0.70;0.70;;;;;;;2.03;91.03;98803.94;5088864;28;20035;-72
2024/04/02 03:45:39;;;;;;;0.40;0.40;;;;;;;1.93;91.17;98784.31;5087835;28;20029;-73
2024/04/02 03:48:05;;;;;;;0.50;0.50;;;;;;;1.90;91.52;98785.13;5087365;28;20016;-72
2024/04/02 03:50:31;;;;;;;0.40;0.40;;;;;;;1.85;91.84;98785.13;5087666;28;20027;-76
2024/04/02 03:52:56;;;;;;;0.40;0.40;;;;;;;1.78;91.98;98773.19;5087525;28;20353;-73
2024/04/02 03:55:21;;;;;;;0.40;0.40;;;;;;;1.77;92.34;98786.00;5087477;28;20028;-76
2024/04/02 03:57:47;;;;;;;0.40;0.40;;;;;;;1.70;92.45;98765.53;5087228;28;20040;-72
2024/04/02 04:00:13;;;;;;;0.40;0.40;;;;;;;1.68;92.76;98790.25;5087436;28;20016;-72
2024/04/02 04:02:38;;;;;;;0.40;0.40;;;;;;;1.68;92.96;98795.34;5087001;28;20032;-73
2024/04/02 04:05:04;;;;;;;0.40;0.40;;;;;;;1.64;92.99;98797.91;5087509;28;20024;-73
2024/04/02 04:07:30;;;;;;;0.40;0.40;;;;;;;1.66;93.39;98783.44;5085707;28;20402;-72
2024/04/02 04:09:55;;;;;;;0.50;0.50;;;;;;;1.65;93.53;98800.47;5087290;28;20056;-74
2024/04/02 04:12:21;;;;;;;0.50;0.50;;;;;;;1.61;93.65;98788.53;5085849;28;20111;-73
2024/04/02 04:14:49;;;;;;;0.40;0.40;;;;;;;1.77;93.31;98796.22;5087168;28;20028;-75
2024/04/02 04:17:15;;;;;;;0.50;0.50;;;;;;;1.66;93.75;98806.44;5078765;28;20020;-74
2024/04/02 04:19:40;;;;;;;0.40;0.40;;;;;;;1.52;93.92;98797.03;5086854;28;20074;-72
2024/04/02 04:22:05;;;;;;;0.40;0.40;;;;;;;1.52;94.02;98803.88;5087102;28;20020;-71
2024/04/02 04:24:31;;;;;;;0.73;0.50;;;;;;;1.43;94.03;98786.78;5085620;28;20073;-71
2024/04/02 04:26:56;;;;;;;0.50;0.50;;;;;;;1.41;94.46;98803.81;5086924;28;20070;-69
2024/04/02 04:29:21;;;;;;;0.40;0.40;;;;;;;1.42;94.71;98805.53;5086757;28;20032;-70
2024/04/02 04:31:47;;;;;;;0.55;0.55;;;;;;;1.37;94.66;98797.84;5086919;28;20074;-70
2024/04/02 04:34:13;;;;;;;0.50;0.50;;;;;;;1.28;94.69;98797.84;5086504;28;20084;-70
2024/04/02 04:36:39;;;;;;;0.70;0.70;;;;;;;1.39;94.78;98826.81;5086571;28;20024;-71
2024/04/02 04:39:05;;;;;;;0.43;0.43;;;;;;;1.27;95.10;98811.44;5084793;28;20036;-69
2024/04/02 04:41:33;;;;;;;0.40;0.40;;;;;;;1.19;95.32;98799.50;5084659;28;20047;-69
2024/04/02 04:43:59;;;;;;;0.50;0.50;;;;;;;1.20;95.39;98811.41;5085064;28;20029;-70
2024/04/02 04:46:25;;;;;;;0.40;0.40;;;;;;;1.11;95.82;98845.47;5086644;28;20127;-68
2024/04/02 04:48:51;;;;;;;0.50;0.50;;;;;;;1.13;95.57;98813.94;5086299;28;20032;-69
2024/04/02 04:51:16;;;;;;;0.50;0.50;;;;;;;1.07;95.79;98817.34;5085075;28;20400;-69
2024/04/02 04:53:42;;;;;;;0.50;0.50;;;;;;;1.06;95.90;98813.94;5084898;28;20035;-70
2024/04/02 04:56:07;;;;;;;0.40;0.40;;;;;;;1.06;96.10;98802.84;5084766;28;20142;-71
2024/04/02 04:58:34;;;;;;;0.40;0.40;;;;;;;1.01;96.08;98853.94;5086057;28;20031;-70
2024/04/02 05:01:00;;;;;;;0.40;0.40;;;;;;;0.92;96.21;98787.44;5086325;28;20021;-69
2024/04/02 05:03:26;;;;;;;0.50;0.50;;;;;;;0.92;96.34;98810.44;5086142;28;20029;-68
2024/04/02 05:06:04;;;;;;;0.50;0.50;;;;;;;0.92;96.61;98816.41;5085141;28;20026;-70
2024/04/02 05:08:33;;;;;;;0.50;0.50;;;;;;;0.93;96.72;98823.22;5084624;28;20353;-70
2024/04/02 05:10:59;;;;;;;0.45;0.45;;;;;;;0.93;96.95;98820.66;5086098;28;20031;-70
2024/04/02 05:13:25;;;;;;;0.45;0.45;;;;;;;0.87;96.89;98823.19;5086013;28;20025;-70
2024/04/02 05:15:50;;;;;;;0.40;0.40;;;;;;;0.85;96.83;98840.22;5086133;28;20043;-70
2024/04/02 05:18:15;;;;;;;0.47;0.47;;;;;;;0.86;97.46;98836.84;5085671;28;20024;-71
2024/04/02 05:20:42;;;;;;;0.40;0.40;;;;;;;0.87;97.35;98846.19;5086132;28;20449;-69
2024/04/02 05:23:08;;;;;;;0.50;0.50;;;;;;;0.85;97.39;98835.97;5084405;28;20043;-70
2024/04/02 05:25:33;;;;;;;0.40;0.40;;;;;;;0.79;97.43;98865.72;5085643;28;20020;-73
2024/04/02 05:27:59;;;;;;;0.40;0.40;;;;;;;0.95;97.15;98848.78;5085636;28;20032;-71
2024/04/02 05:30:24;;;;;;;0.50;0.50;;;;;;;0.93;97.13;98848.78;5085717;28;20024;-70
2024/04/02 05:32:49;;;;;;;0.50;0.50;;;;;;;0.84;97.53;98835.97;5084055;28;20070;-70
2024/04/02 05:35:15;;;;;;;0.50;0.50;;;;;;;0.78;97.75;98843.59;5085874;28;20029;-67
2024/04/02 05:37:40;;;;;;;0.50;0.50;;;;;;;0.75;97.78;98829.09;5085588;28;20020;-70
2024/04/02 05:40:07;;;;;;;0.50;0.50;;;;;;;0.68;97.60;98845.22;5085535;28;20089;-70
2024/04/02 05:42:33;;;;;;;0.50;0.50;;;;;;;0.67;97.85;98867.34;5085414;28;20103;-73
2024/04/02 05:44:59;;;;;;;0.60;0.60;;;;;;;0.64;97.91;98840.94;5085437;28;20033;-69
2024/04/02 05:47:24;;;;;;;0.60;0.60;;;;;;;0.61;97.95;98851.97;5085624;28;20107;-72
2024/04/02 05:49:49;;;;;;;0.50;0.50;;;;;;;0.60;98.18;98856.25;5085130;28;20017;-70
2024/04/02 05:52:16;;;;;;;0.40;0.40;;;;;;;0.59;98.31;98858.81;5085017;28;20028;-70
2024/04/02 05:54:41;;;;;;;0.50;0.50;;;;;;;0.59;98.32;98857.09;5085306;28;20169;-72
2024/04/02 05:57:07;;;;;;;0.50;0.50;;;;;;;0.56;98.41;98874.09;5083939;28;20032;-73
2024/04/02 05:59:32;;;;;;;0.50;0.50;;;;;;;0.61;98.25;98854.53;5085125;28;20028;-72
2024/04/02 06:01:57;;;;;;;0.40;0.40;;;;;;;0.60;97.86;98860.50;5084425;28;20024;-70
2024/04/02 06:04:23;;;;;;;0.50;0.50;;;;;;;0.57;97.99;98857.94;5085249;28;20087;-69
2024/04/02 06:06:48;;;;;;;0.50;0.50;;;;;;;0.52;98.30;98867.25;5085319;28;20028;-72
2024/04/02 06:09:13;;;;;;;0.40;0.40;;;;;;;0.55;97.88;98859.59;5083588;28;20051;-70
2024/04/02 06:11:39;;;;;;;0.50;0.50;;;;;;;0.57;97.70;98869.00;5085237;28;20025;-70
2024/04/02 06:14:04;;;;;;;0.50;0.50;;;;;;;0.46;98.23;98871.44;5085139;28;20488;-72
2024/04/02 06:16:30;;;;;;;0.40;0.40;;;;;;;0.52;98.29;98880.00;5083852;28;20051;-71
2024/04/02 06:18:55;;;;;;;0.50;0.50;;;;;;;0.40;98.75;98865.47;5084785;28;20021;-71
2024/04/02 06:21:20;;;;;;;0.50;0.50;;;;;;;0.35;98.85;98868.81;5085225;28;20381;-71
2024/04/02 06:23:47;;;;;;;0.57;0.57;;;;;;;0.36;99.20;98872.22;5085171;28;20035;-71
2024/04/02 06:26:14;;;;;;;0.50;0.50;;;;;;;0.37;99.17;98873.94;5085245;28;20048;-70
2024/04/02 06:28:40;;;;;;;0.40;0.40;;;;;;;0.35;99.18;98879.03;5083631;28;20027;-71
2024/04/02 06:31:05;;;;;;;0.40;0.40;;;;;;;0.28;99.42;98873.84;5084830;28;20461;-71
2024/04/02 06:33:31;;;;;;;0.65;0.65;;;;;;;0.23;99.46;98861.91;5084593;28;20044;-72
2024/04/02 06:35:56;;;;;;;0.50;0.50;;;;;;;0.24;99.53;98850.84;5084998;28;20025;-70
2024/04/02 06:38:22;;;;;;;0.50;0.50;;;;;;;0.23;99.59;98876.38;5084730;28;20020;-72
2024/04/02 06:40:47;;;;;;;0.40;0.40;;;;;;;0.16;99.82;98855.03;5083588;28;20061;-70
2024/04/02 06:43:12;;;;;;;0.40;0.40;;;;;;;0.19;99.89;98883.13;5084681;28;20032;-71
2024/04/02 06:45:38;;;;;;;0.50;0.50;;;;;;;0.19;99.85;98883.13;5083648;28;20025;-66
2024/04/02 06:48:04;;;;;;;0.40;0.40;;;;;;;0.14;99.86;98892.47;5084508;28;20024;-68
2024/04/02 06:50:29;;;;;;;0.50;0.50;;;;;;;0.10;99.92;98894.13;5084858;28;20028;-67
2024/04/02 06:52:55;;;;;;;0.50;0.50;;;;;;;0.11;100.00;98877.97;5084642;28;20024;-67
2024/04/02 06:55:20;;;;;;;0.40;0.40;;;;;;;0.10;100.00;98886.47;5084929;28;20031;-67
2024/04/02 06:57:45;;;;;;;0.40;0.40;;;;;;;0.11;100.00;98893.28;5084675;28;20027;-67
2024/04/02 07:00:14;;;;;;;0.47;0.47;;;;;;;0.26;99.82;98898.53;5083393;28;20380;-68
2024/04/02 07:02:39;;;;;;;0.50;0.50;;;;;;;0.24;99.65;98890.84;5084378;28;20028;-69
2024/04/02 07:05:05;;;;;;;0.45;0.45;;;;;;;0.23;99.98;98892.56;5086751;28;20020;-66
2024/04/02 07:07:30;;;;;;;0.40;0.40;;;;;;;0.20;100.00;98896.78;5088349;28;20051;-67
2024/04/02 07:09:56;;;;;;;0.40;0.40;;;;;;;0.23;99.89;98901.91;5088381;28;20024;-66
2024/04/02 07:12:21;;;;;;;0.40;0.40;;;;;;;0.19;100.00;98906.09;5087023;28;20076;-67
2024/04/02 07:14:46;;;;;;;0.40;0.40;;;;;;;0.11;100.00;98887.34;5088560;28;20028;-68
2024/04/02 07:17:12;;;;;;;0.60;0.60;;;;;;;0.09;100.00;98906.88;5088324;28;20024;-68
2024/04/02 07:19:37;;;;;;;0.50;0.50;;;;;;;0.06;100.00;98904.28;5086722;28;20154;-66
2024/04/02 07:22:03;;;;;;;0.50;0.50;;;;;;;0.07;100.00;98911.09;5088331;28;20024;-63
2024/04/02 07:24:28;;;;;;;0.50;0.50;;;;;;;0.07;100.00;98891.56;5088183;28;20016;-62
2024/04/02 07:26:54;;;;;;;0.40;0.40;;;;;;;0.11;100.00;98900.09;5088397;28;20028;-62
2024/04/02 07:29:19;;;;;;;0.40;0.40;;;;;;;0.11;100.00;98897.56;5087889;28;20028;-62
2024/04/02 07:31:44;;;;;;;0.50;0.50;;;;;;;0.10;100.00;98883.91;5088080;28;20491;-62
2024/04/02 07:34:10;;;;;;;0.40;0.40;;;;;;;0.10;100.00;98900.91;5087836;28;20082;-62
2024/04/02 07:36:35;;;;;;;0.40;0.40;;;;;;;0.10;100.00;98891.56;5086799;28;20115;-62
2024/04/02 07:39:01;;;;;;;0.50;0.50;;;;;;;0.10;100.00;98896.69;5087680;28;20035;-62
2024/04/02 07:41:26;;;;;;;0.50;0.50;;;;;;;0.15;100.00;98898.41;5088072;28;20033;-63
2024/04/02 07:43:51;;;;;;;0.50;0.50;;;;;;;0.19;100.00;98903.56;5087693;28;20058;-63
2024/04/02 07:46:17;;;;;;;0.47;0.47;;;;;;;0.17;100.00;98877.19;5088019;28;20024;-61
2024/04/02 07:48:42;;;;;;;0.50;0.50;;;;;;;0.13;100.00;98895.84;5087551;28;20450;-61
2024/04/02 07:51:09;;;;;;;0.40;0.40;;;;;;;0.11;100.00;98897.56;5087829;28;20042;-60
2024/04/02 07:53:34;;;;;;;0.40;0.40;;;;;;;0.09;100.00;98906.88;5086210;28;20021;-61
2024/04/02 07:56:00;;;;;;;0.50;0.50;;;;;;;0.08;100.00;98910.28;5087635;28;20066;-62
2024/04/02 07:58:25;;;;;;;0.50;0.50;;;;;;;0.04;100.00;98908.53;5087329;28;20026;-62
2024/04/02 08:00:50;;;;;;;0.50;0.50;;;;;;;0.08;100.00;98913.66;5087498;28;20054;-62
2024/04/02 08:03:16;;;;;;;0.40;0.40;;;;;;;0.11;100.00;98920.53;5085705;28;20024;-62
2024/04/02 08:05:41;;;;;;;0.50;0.50;;;;;;;0.12;100.00;98929.88;5087263;28;20101;-63
2024/04/02 08:08:06;;;;;;;0.50;0.50;;;;;;;0.09;100.00;98935.81;5087273;28;20044;-63
2024/04/02 08:10:32;;;;;;;0.40;0.40;;;;;;;0.10;100.00;98936.66;5087293;28;20491;-62
2024/04/02 08:12:58;;;;;;;0.50;0.50;;;;;;;0.07;100.00;98923.84;5087388;28;20034;-61
2024/04/02 08:15:23;;;;;;;0.50;0.50;;;;;;;0.05;100.00;98928.94;5087053;28;20027;-62
2024/04/02 08:17:49;;;;;;;0.40;0.40;;;;;;;0.05;100.00;98953.63;5087418;28;20025;-62
2024/04/02 08:20:14;;;;;;;0.43;0.43;;;;;;;-0.05;100.00;98925.44;5087314;28;20383;-62
2024/04/02 08:22:40;;;;;;;0.50;0.50;;;;;;;-0.04;100.00;98956.91;5087347;28;20021;-62
2024/04/02 08:25:07;;;;;;;0.40;0.40;;;;;;;-0.06;100.00;98982.41;5087337;28;20025;-62
2024/04/02 08:27:33;;;;;;;0.50;0.50;;;;;;;-0.08;100.00;98984.09;5085697;28;20119;-62
2024/04/02 08:29:58;;;;;;;0.40;0.40;;;;;;;-0.09;100.00;98977.28;5087012;28;20024;-62
2024/04/02 08:32:24;;;;;;;0.50;0.50;;;;;;;-0.11;100.00;98966.19;5087159;28;20024;-62
2024/04/02 08:34:49;;;;;;;0.50;0.50;;;;;;;-0.10;100.00;98974.72;5086837;28;20024;-62
2024/04/02 08:37:15;;;;;;;0.40;0.40;;;;;;;-0.10;100.00;98995.13;5087100;28;20044;-62
2024/04/02 08:39:42;;;;;;;0.50;0.50;;;;;;;-0.15;100.00;98972.09;5086905;28;20013;-62
2024/04/02 08:42:08;;;;;;;0.50;0.50;;;;;;;-0.18;100.00;98964.41;5086899;28;20090;-62
2024/04/02 08:44:36;;;;;;;0.60;0.60;;;;;;;-0.22;100.00;98967.78;5086789;28;20024;-62
2024/04/02 08:47:02;;;;;;;0.50;0.50;;;;;;;-0.23;100.00;98971.16;5086689;28;20051;-61
2024/04/02 08:49:27;;;;;;;0.50;0.50;;;;;;;-0.23;100.00;98973.69;5086517;28;20387;-62
2024/04/02 08:51:53;;;;;;;0.40;0.40;;;;;;;-0.21;100.00;98972.03;5085468;28;20544;-63
2024/04/02 08:54:19;;;;;;;0.50;0.50;;;;;;;-0.20;100.00;98968.63;5086495;28;20445;-61
2024/04/02 08:56:46;;;;;;;0.40;0.40;;;;;;;-0.24;100.00;98970.31;5086629;28;20024;-62
2024/04/02 08:59:11;;;;;;;0.50;0.50;;;;;;;-0.16;100.00;98980.63;5086767;28;20028;-62
2024/04/02 09:01:37;;;;;;;0.45;0.45;;;;;;;-0.18;100.00;98985.69;5086533;28;20032;-62
2024/04/02 09:04:03;;;;;;;0.50;0.50;;;;;;;-0.21;100.00;98977.13;5084905;28;20025;-62
2024/04/02 09:06:29;;;;;;;0.50;0.50;;;;;;;-0.19;100.00;98981.41;5086377;28;20092;-62
2024/04/02 09:08:56;;;;;;;0.50;0.50;;;;;;;-0.17;100.00;98974.63;5085922;28;20075;-62
2024/04/02 09:11:22;;;;;;;0.50;0.50;;;;;;;-0.14;100.00;98963.59;5086330;28;20070;-62
2024/04/02 09:13:48;;;;;;;0.50;0.50;;;;;;;-0.21;100.00;98966.94;5086194;28;20051;-61
2024/04/02 09:16:13;;;;;;;0.50;0.50;;;;;;;-0.23;100.00;98979.66;5086200;28;20028;-62
2024/04/02 09:18:42;;;;;;;0.50;0.50;;;;;;;-0.36;100.00;98963.34;5085924;28;20020;-61
2024/04/02 09:21:10;;;;;;;0.50;0.50;;;;;;;-0.20;100.00;98989.03;5086207;28;20020;-62
2024/04/02 09:23:36;;;;;;;0.52;0.52;;;;;;;-0.22;100.00;98985.63;5086024;28;20039;-60
2024/04/02 09:26:01;;;;;;;0.40;0.40;;;;;;;-0.23;100.00;98994.97;5086113;28;20079;-61
2024/04/02 09:28:27;;;;;;;0.40;0.40;;;;;;;-0.23;100.00;98994.97;5085127;28;20020;-62
2024/04/02 09:30:52;;;;;;;0.50;0.50;;;;;;;-0.25;100.00;98989.00;5085820;28;20032;-61
2024/04/02 09:33:18;;;;;;;0.40;0.40;;;;;;;-0.22;100.00;99000.94;5085674;28;20031;-61
2024/04/02 09:35:43;;;;;;;0.40;0.40;;;;;;;-0.20;100.00;98984.81;5085995;28;20447;-62
2024/04/02 09:38:12;;;;;;;0.47;0.47;;;;;;;-0.22;100.00;98991.56;5085762;28;20031;-62
2024/04/02 09:40:40;;;;;;;0.50;0.50;;;;;;;-0.24;100.00;98977.09;5085735;28;20020;-62
2024/04/02 09:43:08;;;;;;;0.50;0.50;;;;;;;-0.25;100.00;98991.53;5085572;28;20423;-62
2024/04/02 09:45:33;;;;;;;0.50;0.50;;;;;;;-0.34;100.00;99001.63;5084598;28;20029;-62
2024/04/02 09:48:00;;;;;;;0.50;0.50;;;;;;;-0.24;100.00;99015.38;5085112;28;20377;-61
2024/04/02 09:50:26;;;;;;;0.50;0.50;;;;;;;-0.23;100.00;99029.81;5084406;28;20024;-61
2024/04/02 09:52:53;;;;;;;0.80;0.80;;;;;;;-0.33;100.00;99001.66;5085282;28;20131;-62
2024/04/02 09:55:21;;;;;;;0.50;0.50;;;;;;;-0.30;100.00;99005.91;5084092;28;20017;-62
2024/04/02 09:57:47;;;;;;;0.63;0.63;;;;;;;-0.33;100.00;99006.75;5085455;28;20032;-61
2024/04/02 10:00:13;;;;;;;0.47;0.47;;;;;;;-0.35;100.00;99010.97;5085392;28;20065;-61
2024/04/02 10:02:39;;;;;;;0.52;0.52;;;;;;;-0.29;100.00;99013.59;5085222;28;20084;-62
2024/04/02 10:05:08;;;;;;;0.50;0.50;;;;;;;-0.33;100.00;99027.16;5085271;28;20028;-63
2024/04/02 10:07:41;;;;;;;0.60;0.60;;;;;;;-0.26;100.00;99021.28;5085122;28;20016;-61
2024/04/02 10:10:06;;;;;;;0.50;0.50;;;;;;;-0.27;100.00;99024.69;5085168;28;20084;-63
2024/04/02 10:12:36;;;;;;;0.52;0.52;;;;;;;-0.30;100.00;99045.03;5083956;28;20025;-62
2024/04/02 10:15:13;;;;;;;0.55;0.55;;;;;;;-0.29;100.00;99046.75;5085244;28;20515;-62
2024/04/02 10:17:38;;;;;;;0.50;0.50;;;;;;;-0.32;100.00;99026.31;5084087;28;20573;-62
2024/04/02 10:20:24;;;;;;;0.50;0.50;;;;;;;-0.39;100.00;99029.63;5083730;28;20083;-62
2024/04/02 10:22:53;;;;;;;0.50;0.50;;;;;;;-0.38;100.00;99036.41;5085238;28;20032;-61
2024/04/02 10:25:19;;;;;;;0.40;0.40;;;;;;;-0.36;100.00;99033.88;5085266;28;20025;-61
2024/04/02 10:27:47;;;;;;;0.50;0.50;;;;;;;-0.34;100.00;99043.31;5085063;28;20372;-63
2024/04/02 10:30:22;;;;;;;0.80;0.75;;;;;;;-0.35;100.00;99025.44;5085025;28;20243;-62
2024/04/02 10:32:49;;;;;;;0.40;0.40;;;;;;;-0.35;100.00;99039.00;5085157;28;20048;-61
2024/04/02 10:35:21;;;;;;;0.50;0.50;;;;;;;-0.32;100.00;99043.31;5085086;28;20025;-62
2024/04/02 10:37:49;;;;;;;0.52;0.52;;;;;;;-0.27;100.00;99034.88;5084929;28;20037;-61
2024/04/02 10:40:15;;;;;;;1.13;0.80;;;;;;;-0.21;100.00;99046.88;5088993;28;20020;-62
2024/04/02 10:42:43;;;;;;;0.60;0.60;;;;;;;-0.32;100.00;99039.06;5089179;28;20480;-62
2024/04/02 10:45:08;;;;;;;1.48;0.60;;;;;;;-0.34;100.00;99035.66;5089169;28;20050;-61
2024/04/02 10:47:35;;;;;;;0.63;0.63;;;;;;;-0.29;100.00;99039.09;5088953;28;20028;-62
2024/04/02 10:50:01;;;;;;;9.00;1.02;;;;;;;-0.30;100.00;99050.16;5087414;28;20025;-61
2024/04/02 10:52:26;;;;;;;0.50;0.50;;;;;;;-0.27;100.00;99041.66;5089075;28;20024;-62
2024/04/02 10:54:51;;;;;;;5.10;0.60;;;;;;;-0.26;100.00;99040.84;5088854;28;20036;-62
2024/04/02 10:57:17;;;;;;;0.50;0.50;;;;;;;-0.24;100.00;99062.16;5088793;28;20042;-62
2024/04/02 10:59:43;;;;;;;0.57;0.57;;;;;;;-0.35;100.00;99044.13;5088760;28;20036;-62
2024/04/02 11:02:18;;;;;;;0.40;0.40;;;;;;;-0.32;100.00;99053.53;5087463;28;20032;-63
2024/04/02 11:04:43;;;;;;;0.30;0.30;;;;;;;-0.35;100.00;99046.66;5087271;28;20423;-63
2024/04/02 11:07:10;;;;;;;0.40;0.40;;;;;;;-0.33;100.00;99060.31;5088828;28;20111;-62
2024/04/02 11:09:36;;;;;;;0.70;0.70;;;;;;;-0.24;100.00;99079.13;5088140;28;20040;-61
2024/04/02 11:12:04;;;;;;;0.50;0.50;;;;;;;-0.42;100.00;99049.97;5088614;28;20043;-61
2024/04/02 11:14:30;;;;;;;0.50;0.50;;;;;;;-0.41;100.00;99072.94;5087336;28;20029;-60
2024/04/02 11:16:55;;;;;;;0.40;0.40;;;;;;;-0.31;100.00;99070.53;5087234;28;20490;-61
2024/04/02 11:19:21;;;;;;;0.40;0.40;;;;;;;-0.39;100.00;99061.09;5088139;28;20024;-61
2024/04/02 11:21:46;;;;;;;0.50;0.50;;;;;;;-0.46;100.00;99064.38;5088394;28;20020;-63
2024/04/02 11:27:02;;;;;;;0.60;0.60;;;;;;;-0.36;100.00;99083.22;5088378;28;20096;-63
2024/04/02 11:29:27;;;;;;;0.50;0.50;;;;;;;-0.36;100.00;99074.69;5086743;28;20028;-62
2024/04/02 11:31:53;;;;;;;0.50;0.50;;;;;;;-0.33;100.00;99083.25;5088215;28;20036;-61
2024/04/02 11:34:19;;;;;;;0.50;0.50;;;;;;;-0.31;100.00;99078.19;5087872;28;20051;-62